SBOSBO PIT / KPIT
Speedbird OnlineSpeedbird Online PIT / KPIT

Pittsburgh International Airport
04:15 8.3°C

Location Pittsburgh, United States
Latitude: 40.49150085
Longitude: -80.23290253
Web Wikipedia
Altitude 367 Meter / 1203 Feet
Distance 6,006 KM / 3,732 Miles
from London.
Time Zone UTC -4 hours (America/New_York)
Codes IATA: PIT
ICAO: KPIT
Currency £1 equals USD 1.13
Runways
RunwayLength (m)Surface
10C2959Partial
10L3201Partial
10R3505Concrete
142469Concrete
28C2959Partial
28L3505Concrete
28R3201Partial
322469Concrete
Radio
TypeDescriptionFrequency
APPAPP120.875
APPAPP36.08
ATISATIS127.25
CLDCLNC DEL126.75
DEPDEP118.65
GNDGND121.9
OPSANG OPS31.1
POSTPITT COMD POST25.21
RDOALTOONA RDO112
RMPRAMP CON131.375
TWRTWR119.1
UNICUNICOM122.95
Live ATC
METAR KPIT 060751Z 00000KT 10SM CLR 09/07 A3005 RMK AO2 SLP180 T00940067
TAF KPIT 060520Z 0606/0712 00000KT P6SM SKC FM061400 23005KT P6SM BKN250 FM070600 24003KT P6SM OVC100
Weather As Of 06 Oct 2022 04:15
Description Clear sky
Wind 0 km/h from North (0°)
Cloud Cover 0%
Precipitation Rain: none, Snow: none
Sunrise 07:22
Sunset 18:55
Lounges American Airlines Admirals Club, Main Terminal
Rotations During the last 90 days there were
50 flights from LHR
47 flights to LHR


© 2017-2022 Speedbird Online